Time,TemperatureF,DewpointF,PressureIn,WindDirection,WindDirectionDegrees,WindSpeedMPH,WindSpeedGustMPH,Humidity,HourlyPrecipIn,Conditions,Clouds,dailyrainin,SolarRadiationWatts/m^2,SoftwareType,DateUTC
2013-10-01 00:00:00,35.6,29.1,29.94,East,81,0.0,1.0,77,0.00,CLR,OVC,0.00,0.0,WeatherDisplay:10.37,2013-09-30 22:00:00,
2013-10-01 00:10:00,35.6,29.1,29.94,ENE,74,2.0,2.0,77,0.00,CLR,OVC,0.00,0.0,WeatherDisplay:10.37,2013-09-30 22:10:00,
2013-10-01 00:20:00,35.2,28.8,29.94,East,80,1.0,2.0,77,0.00,CLR,OVC,0.00,0.0,WeatherDisplay:10.37,2013-09-30 22:20:00,
2013-10-01 00:30:00,35.2,28.8,29.94,East,89,0.0,1.0,77,0.00,CLR,OVC,0.00,0.0,WeatherDisplay:10.37,2013-09-30 22:30:00,
2013-10-01 00:40:00,34.7,28.5,29.94,East,86,0.0,0.0,78,0.00,CLR,OVC,0.00,0.0,WeatherDisplay:10.37,2013-09-30 22:40:00,
2013-10-01 00:50:00,34.5,28.4,29.94,NE,49,0.0,0.0,78,0.00,CLR,OVC,0.00,0.0,WeatherDisplay:10.37,2013-09-30 22:50:00,
2013-10-01 01:00:00,34.7,28.5,29.94,ENE,63,0.0,0.0,78,0.00,CLR,OVC,0.00,0.0,WeatherDisplay:10.37,2013-09-30 23:00:00,
2013-10-01 01:10:00,34.7,28.5,29.94,ENE,76,0.0,0.0,78,0.00,CLR,OVC,0.00,0.0,WeatherDisplay:10.37,2013-09-30 23:10:00,
2013-10-01 01:20:00,34.5,28.4,29.94,East,86,0.0,0.0,78,0.00,CLR,OVC,0.00,0.0,WeatherDisplay:10.37,2013-09-30 23:20:00,
2013-10-01 01:30:00,34.0,27.8,29.94,South,173,0.0,0.0,78,0.00,CLR,OVC,0.00,0.0,WeatherDisplay:10.37,2013-09-30 23:30:00,
2013-10-01 01:40:00,33.3,27.1,29.94,South,182,0.0,0.0,78,0.00,CLR,OVC,0.00,0.0,WeatherDisplay:10.37,2013-09-30 23:40:00,
2013-10-01 01:50:00,33.3,27.1,29.94,SSW,198,0.0,0.0,78,0.00,CLR,OVC,0.00,0.0,WeatherDisplay:10.37,2013-09-30 23:50:00,
2013-10-01 02:00:00,32.4,26.3,29.94,SSW,204,0.0,0.0,78,0.00,CLR,OVC,0.00,0.0,WeatherDisplay:10.37,2013-10-01 00:00:00,
2013-10-01 02:10:00,32.4,26.3,29.94,NNE,26,0.0,0.0,78,0.00,CLR,OVC,0.00,0.0,WeatherDisplay:10.37,2013-10-01 00:10:00,
2013-10-01 02:20:00,31.6,25.6,29.94,SSE,162,0.0,0.0,78,0.00,CLR,OVC,0.00,0.0,WeatherDisplay:10.37,2013-10-01 00:20:00,
2013-10-01 02:30:00,31.5,25.4,29.94,ESE,122,0.0,0.0,78,0.00,CLR,OVC,0.00,0.0,WeatherDisplay:10.37,2013-10-01 00:30:00,
2013-10-01 02:40:00,31.8,25.7,29.94,NNE,12,0.0,0.0,78,0.00,CLR,OVC,0.00,0.0,WeatherDisplay:10.37,2013-10-01 00:40:00,
2013-10-01 02:50:00,31.3,25.2,29.94,South,175,0.0,0.0,78,0.00,CLR,OVC,0.00,0.0,WeatherDisplay:10.37,2013-10-01 00:50:00,
2013-10-01 03:00:00,31.1,25.0,29.94,ENE,65,0.0,0.0,78,0.00,CLR,OVC,0.00,0.0,WeatherDisplay:10.37,2013-10-01 01:00:00,
2013-10-01 03:10:00,30.7,24.7,29.91,SSW,192,0.0,0.0,78,0.00,CLR,OVC,0.00,0.0,WeatherDisplay:10.37,2013-10-01 01:10:00,
2013-10-01 03:20:00,30.0,24.0,29.91,SSW,209,0.0,0.0,78,0.00,CLR,OVC,0.00,0.0,WeatherDisplay:10.37,2013-10-01 01:20:00,
2013-10-01 03:30:00,29.8,23.8,29.91,SSW,206,0.0,0.0,78,0.00,CLR,OVC,0.00,0.0,WeatherDisplay:10.37,2013-10-01 01:30:00,
2013-10-01 03:40:00,29.5,23.5,29.91,South,185,0.0,0.0,78,0.00,CLR,OVC,0.00,0.0,WeatherDisplay:10.37,2013-10-01 01:40:00,
2013-10-01 03:50:00,29.1,23.4,29.91,SSW,204,0.0,0.0,79,0.00,CLR,OVC,0.00,0.0,WeatherDisplay:10.37,2013-10-01 01:50:00,
2013-10-01 04:00:00,28.8,23.1,29.91,SSW,196,0.0,0.0,79,0.00,CLR,OVC,0.00,0.0,WeatherDisplay:10.37,2013-10-01 02:00:00,
2013-10-01 04:10:00,28.4,22.4,29.91,SSW,198,0.0,0.0,78,0.00,CLR,OVC,0.00,0.0,WeatherDisplay:10.37,2013-10-01 02:10:00,
2013-10-01 04:20:00,28.2,22.2,29.91,SSE,167,0.0,0.0,78,0.00,CLR,OVC,0.00,0.0,WeatherDisplay:10.37,2013-10-01 02:20:00,
2013-10-01 04:30:00,28.4,22.4,29.91,SSE,167,0.0,0.0,78,0.00,CLR,OVC,0.00,0.0,WeatherDisplay:10.37,2013-10-01 02:30:00,
2013-10-01 04:40:00,28.6,22.9,29.91,SW,233,0.0,0.0,79,0.00,CLR,OVC,0.00,0.0,WeatherDisplay:10.37,2013-10-01 02:40:00,
2013-10-01 04:50:00,28.8,23.1,29.91,SE,127,0.0,0.0,79,0.00,CLR,OVC,0.00,0.0,WeatherDisplay:10.37,2013-10-01 02:50:00,
2013-10-01 05:00:00,28.6,22.9,29.91,ESE,109,0.0,0.0,79,0.00,CLR,OVC,0.00,0.0,WeatherDisplay:10.37,2013-10-01 03:00:00,
2013-10-01 05:10:00,28.2,22.2,29.91,ESE,105,0.0,0.0,78,0.00,CLR,OVC,0.00,0.0,WeatherDisplay:10.37,2013-10-01 03:10:00,
2013-10-01 05:20:00,28.8,23.1,29.91,NE,54,0.0,0.0,79,0.00,CLR,OVC,0.00,0.0,WeatherDisplay:10.37,2013-10-01 03:20:00,
2013-10-01 05:30:00,28.8,23.1,29.91,NNE,32,0.0,0.0,79,0.00,CLR,OVC,0.00,0.0,WeatherDisplay:10.37,2013-10-01 03:30:00,
2013-10-01 05:40:00,28.8,23.1,29.94,NE,39,0.0,0.0,79,0.00,CLR,OVC,0.00,0.0,WeatherDisplay:10.37,2013-10-01 03:40:00,
2013-10-01 05:50:00,27.7,22.0,29.91,NE,45,0.0,0.0,79,0.00,CLR,OVC,0.00,0.0,WeatherDisplay:10.37,2013-10-01 03:50:00,
2013-10-01 06:00:00,27.9,22.2,29.91,NE,45,0.0,0.0,79,0.00,CLR,OVC,0.00,0.0,WeatherDisplay:10.37,2013-10-01 04:00:00,
2013-10-01 06:10:00,27.5,21.8,29.91,South,190,0.0,0.0,79,0.00,CLR,OVC,0.00,0.0,WeatherDisplay:10.37,2013-10-01 04:10:00,
2013-10-01 06:20:00,26.8,21.1,29.94,SSW,192,0.0,0.0,79,0.00,CLR,OVC,0.00,0.0,WeatherDisplay:10.37,2013-10-01 04:20:00,
2013-10-01 06:30:00,26.8,21.1,29.94,West,260,0.0,0.0,79,0.00,CLR,OVC,0.00,0.0,WeatherDisplay:10.37,2013-10-01 04:30:00,
2013-10-01 06:40:00,26.8,21.1,29.91,SSW,193,0.0,0.0,79,0.00,CLR,OVC,0.00,0.0,WeatherDisplay:10.37,2013-10-01 04:40:00,
2013-10-01 06:50:00,26.6,21.0,29.91,SSW,192,0.0,0.0,79,0.00,CLR,OVC,0.00,0.0,WeatherDisplay:10.37,2013-10-01 04:50:00,
2013-10-01 07:00:00,26.8,21.1,29.91,WNW,295,0.0,0.0,79,0.00,OVC,OVC,0.00,0.0,WeatherDisplay:10.37,2013-10-01 05:00:00,
2013-10-01 07:10:00,26.8,21.1,29.94,SW,225,0.0,0.0,79,0.00,OVC,OVC,0.00,0.0,WeatherDisplay:10.37,2013-10-01 05:10:00,
2013-10-01 07:20:00,25.9,20.3,29.94,South,191,0.0,0.0,79,0.00,OVC,OVC,0.00,0.0,WeatherDisplay:10.37,2013-10-01 05:20:00,
2013-10-01 07:30:00,25.9,20.3,29.94,SSW,194,0.0,0.0,79,0.00,OVC,OVC,0.00,0.0,WeatherDisplay:10.37,2013-10-01 05:30:00,
2013-10-01 07:40:00,26.2,20.6,29.94,SSW,200,0.0,0.0,79,0.00,OVC,OVC,0.00,0.0,WeatherDisplay:10.37,2013-10-01 05:40:00,
2013-10-01 07:50:00,27.1,21.5,29.94,SSW,194,0.0,0.0,79,0.00,OVC,OVC,0.00,0.0,WeatherDisplay:10.37,2013-10-01 05:50:00,
2013-10-01 08:00:00,27.5,21.8,29.94,South,190,0.0,0.0,79,0.00,OVC,OVC,0.00,0.0,WeatherDisplay:10.37,2013-10-01 06:00:00,
2013-10-01 08:10:00,28.9,23.2,29.94,South,181,0.0,0.0,79,0.00,OVC,OVC,0.00,0.0,WeatherDisplay:10.37,2013-10-01 06:10:00,
2013-10-01 08:20:00,32.5,27.1,29.94,South,188,0.0,0.0,80,0.00,OVC,OVC,0.00,0.0,WeatherDisplay:10.37,2013-10-01 06:20:00,
2013-10-01 08:30:00,34.9,29.3,29.94,SSW,197,0.0,0.0,80,0.00,OVC,OVC,0.00,0.0,WeatherDisplay:10.37,2013-10-01 06:30:00,
2013-10-01 08:40:00,38.7,33.0,29.94,SSW,202,0.0,0.0,80,0.00,OVC,OVC,0.00,0.0,WeatherDisplay:10.37,2013-10-01 06:40:00,
2013-10-01 08:50:00,42.4,36.7,29.94,SW,231,0.0,0.0,80,0.00,OVC,OVC,0.00,0.0,WeatherDisplay:10.37,2013-10-01 06:50:00,
2013-10-01 09:00:00,44.1,38.3,29.94,SW,224,0.0,0.0,80,0.00,OVC,OVC,0.00,0.0,WeatherDisplay:10.37,2013-10-01 07:00:00,
2013-10-01 09:10:00,44.8,39.0,29.94,SSW,210,0.0,0.0,80,0.00,OVC,OVC,0.00,0.0,WeatherDisplay:10.37,2013-10-01 07:10:00,
2013-10-01 09:20:00,45.7,38.9,29.94,North,4,0.0,0.0,77,0.00,OVC,OVC,0.00,0.0,WeatherDisplay:10.37,2013-10-01 07:20:00,
2013-10-01 09:30:00,46.0,38.6,29.94,North,1,0.0,0.0,75,0.00,OVC,OVC,0.00,0.0,WeatherDisplay:10.37,2013-10-01 07:30:00,
2013-10-01 09:40:00,46.4,37.5,29.94,NNE,23,2.0,2.0,71,0.00,OVC,OVC,0.00,0.0,WeatherDisplay:10.37,2013-10-01 07:40:00,
2013-10-01 09:50:00,48.4,37.9,29.94,ENE,65,3.0,3.0,67,0.00,OVC,OVC,0.00,0.0,WeatherDisplay:10.37,2013-10-01 07:50:00,
2013-10-01 10:00:00,47.3,35.7,29.94,ENE,78,2.0,3.0,64,0.00,OVC,OVC,0.00,0.0,WeatherDisplay:10.37,2013-10-01 08:00:00,
2013-10-01 10:20:00,48.2,35.8,29.94,ESE,110,3.0,3.0,62,0.00,OVC,OVC,0.00,0.0,WeatherDisplay:10.37,2013-10-01 08:20:00,
2013-10-01 10:30:00,49.1,36.6,29.94,ESE,108,0.0,3.0,62,0.00,OVC,OVC,0.00,0.0,WeatherDisplay:10.37,2013-10-01 08:30:00,
2013-10-01 10:40:00,50.0,36.2,29.97,SE,131,2.0,2.0,59,0.00,OVC,OVC,0.00,0.0,WeatherDisplay:10.37,2013-10-01 08:40:00,
2013-10-01 11:00:00,52.3,37.5,29.97,East,100,0.0,2.0,57,0.00,OVC,OVC,0.00,0.0,WeatherDisplay:10.37,2013-10-01 09:00:00,
2013-10-01 11:10:00,51.4,36.3,29.97,East,82,0.0,4.0,56,0.00,OVC,OVC,0.00,0.0,WeatherDisplay:10.37,2013-10-01 09:10:00,
2013-10-01 11:20:00,52.2,36.5,29.97,North,357,1.0,1.0,55,0.00,OVC,OVC,0.00,0.0,WeatherDisplay:10.37,2013-10-01 09:20:00,
2013-10-01 11:30:00,53.1,36.8,29.97,North,0,5.0,5.0,54,0.00,OVC,OVC,0.00,0.0,WeatherDisplay:10.37,2013-10-01 09:30:00,
2013-10-01 11:40:00,51.4,35.8,29.97,NNE,32,5.0,5.0,55,0.00,OVC,OVC,0.00,0.0,WeatherDisplay:10.37,2013-10-01 09:40:00,
2013-10-01 11:50:00,52.5,36.3,29.97,NNE,26,3.0,5.0,54,0.00,OVC,OVC,0.00,0.0,WeatherDisplay:10.37,2013-10-01 09:50:00,
2013-10-01 12:00:00,52.2,36.0,29.97,NNE,17,5.0,5.0,54,0.00,OVC,OVC,0.00,0.0,WeatherDisplay:10.37,2013-10-01 10:00:00,
2013-10-01 12:10:00,52.2,36.0,29.97,NW,310,6.0,6.0,54,0.00,FEW,OVC,0.00,0.0,WeatherDisplay:10.37,2013-10-01 10:10:00,
2013-10-01 12:30:00,52.2,36.0,29.97,WNW,299,5.0,5.0,54,0.00,FEW,OVC,0.00,0.0,WeatherDisplay:10.37,2013-10-01 10:30:00,
2013-10-01 12:40:00,52.5,35.9,29.97,WNW,295,3.0,5.0,53,0.00,FEW,OVC,0.00,0.0,WeatherDisplay:10.37,2013-10-01 10:40:00,
2013-10-01 12:50:00,53.1,35.9,29.97,NNW,346,8.0,8.0,52,0.00,FEW,OVC,0.00,0.0,WeatherDisplay:10.37,2013-10-01 10:50:00,
2013-10-01 13:00:00,53.1,35.9,29.97,North,355,8.0,8.0,52,0.00,FEW,OVC,0.00,0.0,WeatherDisplay:10.37,2013-10-01 11:00:00,
2013-10-01 13:10:00,53.6,35.4,29.97,NNW,344,6.0,6.0,50,0.00,OVC,OVC,0.00,0.0,WeatherDisplay:10.37,2013-10-01 11:10:00,
2013-10-01 13:20:00,53.2,34.6,29.97,NW,325,3.0,7.0,49,0.00,OVC,OVC,0.00,0.0,WeatherDisplay:10.37,2013-10-01 11:20:00,
2013-10-01 13:30:00,53.6,35.4,29.97,NNW,332,5.0,5.0,50,0.00,OVC,OVC,0.00,0.0,WeatherDisplay:10.37,2013-10-01 11:30:00,
2013-10-01 13:40:00,53.8,34.5,29.97,NNW,335,7.0,7.0,48,0.00,OVC,OVC,0.00,0.0,WeatherDisplay:10.37,2013-10-01 11:40:00,
2013-10-01 13:50:00,54.7,35.4,29.97,NNW,343,3.0,7.0,48,0.00,OVC,OVC,0.00,0.0,WeatherDisplay:10.37,2013-10-01 11:50:00,
2013-10-01 14:00:00,55.2,35.9,29.97,North,358,5.0,5.0,48,0.00,OVC,OVC,0.00,0.0,WeatherDisplay:10.37,2013-10-01 12:00:00,
2013-10-01 14:10:00,54.7,34.8,29.97,North,352,6.0,6.0,47,0.00,FEW,OVC,0.00,0.0,WeatherDisplay:10.37,2013-10-01 12:10:00,
2013-10-01 14:20:00,54.7,34.8,29.97,North,350,5.0,6.0,47,0.00,FEW,OVC,0.00,0.0,WeatherDisplay:10.37,2013-10-01 12:20:00,
2013-10-01 14:30:00,54.1,34.9,29.97,NNW,334,5.0,5.0,48,0.00,FEW,OVC,0.00,0.0,WeatherDisplay:10.37,2013-10-01 12:30:00,
2013-10-01 14:40:00,55.0,35.7,29.97,NNW,329,3.0,5.0,48,0.00,FEW,OVC,0.00,0.0,WeatherDisplay:10.37,2013-10-01 12:40:00,
2013-10-01 14:50:00,55.2,34.8,29.97,ENE,58,6.0,6.0,46,0.00,FEW,OVC,0.00,0.0,WeatherDisplay:10.37,2013-10-01 12:50:00,
2013-10-01 15:00:00,54.5,34.1,29.97,East,85,6.0,6.0,46,0.00,FEW,OVC,0.00,0.0,WeatherDisplay:10.37,2013-10-01 13:00:00,
2013-10-01 15:10:00,56.5,36.5,29.97,NNE,14,3.0,5.0,47,0.00,FEW,OVC,0.00,0.0,WeatherDisplay:10.37,2013-10-01 13:10:00,
2013-10-01 15:20:00,55.8,35.8,29.97,North,349,3.0,4.0,47,0.00,FEW,OVC,0.00,0.0,WeatherDisplay:10.37,2013-10-01 13:20:00,
2013-10-01 15:30:00,55.2,35.9,29.97,NNW,335,5.0,5.0,48,0.00,FEW,OVC,0.00,0.0,WeatherDisplay:10.37,2013-10-01 13:30:00,
2013-10-01 15:40:00,55.2,35.9,29.97,NW,325,5.0,5.0,48,0.00,FEW,OVC,0.00,0.0,WeatherDisplay:10.37,2013-10-01 13:40:00,
2013-10-01 15:50:00,55.0,35.2,29.97,NNW,348,5.0,5.0,47,0.00,FEW,OVC,0.00,0.0,WeatherDisplay:10.37,2013-10-01 13:50:00,
2013-10-01 16:00:00,55.2,35.3,29.97,NNW,337,3.0,5.0,47,0.00,FEW,OVC,0.00,0.0,WeatherDisplay:10.37,2013-10-01 14:00:00,
2013-10-01 16:10:00,55.2,35.3,29.97,NNW,344,6.0,6.0,47,0.00,FEW,OVC,0.00,0.0,WeatherDisplay:10.37,2013-10-01 14:10:00,
2013-10-01 16:20:00,55.2,35.3,29.97,NNW,344,8.0,8.0,47,0.00,FEW,OVC,0.00,0.0,WeatherDisplay:10.37,2013-10-01 14:20:00,
2013-10-01 16:30:00,54.9,35.0,29.97,North,6,5.0,8.0,47,0.00,FEW,OVC,0.00,0.0,WeatherDisplay:10.37,2013-10-01 14:30:00,
2013-10-01 16:40:00,54.3,35.0,29.97,NNE,27,2.0,7.0,48,0.00,FEW,OVC,0.00,0.0,WeatherDisplay:10.37,2013-10-01 14:40:00,
2013-10-01 16:50:00,54.5,35.7,29.97,North,357,3.0,5.0,49,0.00,FEW,OVC,0.00,0.0,WeatherDisplay:10.37,2013-10-01 14:50:00,
2013-10-01 17:00:00,54.3,35.5,29.97,NNE,12,6.0,6.0,49,0.00,FEW,OVC,0.00,0.0,WeatherDisplay:10.37,2013-10-01 15:00:00,
2013-10-01 17:10:00,53.8,35.1,29.97,NE,37,6.0,6.0,49,0.00,FEW,OVC,0.00,0.0,WeatherDisplay:10.37,2013-10-01 15:10:00,
2013-10-01 17:20:00,50.9,33.9,29.97,NNE,24,6.0,6.0,52,0.00,FEW,OVC,0.00,0.0,WeatherDisplay:10.37,2013-10-01 15:20:00,
2013-10-01 17:30:00,51.1,34.1,29.97,NNE,21,3.0,6.0,52,0.00,FEW,OVC,0.00,0.0,WeatherDisplay:10.37,2013-10-01 15:30:00,
2013-10-01 17:40:00,52.3,35.2,29.97,NE,35,3.0,3.0,52,0.00,FEW,OVC,0.00,0.0,WeatherDisplay:10.37,2013-10-01 15:40:00,
2013-10-01 17:50:00,50.9,33.9,29.97,NW,324,6.0,7.0,52,0.00,FEW,OVC,0.00,0.0,WeatherDisplay:10.37,2013-10-01 15:50:00,
2013-10-01 18:00:00,50.4,33.9,29.97,NNW,342,5.0,6.0,53,0.00,FEW,OVC,0.00,0.0,WeatherDisplay:10.37,2013-10-01 16:00:00,
2013-10-01 18:10:00,49.5,33.5,29.97,NNE,12,8.0,8.0,54,0.00,OVC,OVC,0.00,0.0,WeatherDisplay:10.37,2013-10-01 16:10:00,
2013-10-01 18:20:00,47.5,32.6,30.00,NNE,24,3.0,8.0,56,0.00,OVC,OVC,0.00,0.0,WeatherDisplay:10.37,2013-10-01 16:20:00,
2013-10-01 18:30:00,46.9,32.0,30.00,NE,45,2.0,3.0,56,0.00,OVC,OVC,0.00,0.0,WeatherDisplay:10.37,2013-10-01 16:30:00,
2013-10-01 18:40:00,45.9,31.9,30.00,NE,48,1.0,2.0,58,0.00,OVC,OVC,0.00,0.0,WeatherDisplay:10.37,2013-10-01 16:40:00,
2013-10-01 18:50:00,45.0,31.9,30.00,North,6,0.0,1.0,60,0.00,OVC,OVC,0.00,0.0,WeatherDisplay:10.37,2013-10-01 16:50:00,
2013-10-01 19:00:00,44.4,31.4,30.00,NNE,13,0.0,0.0,60,0.00,CLR,OVC,0.00,0.0,WeatherDisplay:10.37,2013-10-01 17:00:00,
2013-10-01 19:10:00,43.7,31.1,30.00,North,9,0.0,0.0,61,0.00,CLR,OVC,0.00,0.0,WeatherDisplay:10.37,2013-10-01 17:10:00,
2013-10-01 19:20:00,43.2,31.0,30.00,NNW,337,0.0,0.0,62,0.00,CLR,OVC,0.00,0.0,WeatherDisplay:10.37,2013-10-01 17:20:00,
2013-10-01 19:30:00,43.0,30.8,30.00,North,349,1.0,1.0,62,0.00,CLR,OVC,0.00,0.0,WeatherDisplay:10.37,2013-10-01 17:30:00,
2013-10-01 19:40:00,42.8,31.1,30.03,NNW,345,0.0,1.0,63,0.00,CLR,OVC,0.00,0.0,WeatherDisplay:10.37,2013-10-01 17:40:00,
2013-10-01 19:50:00,42.3,30.6,30.03,NNW,342,0.0,0.0,63,0.00,CLR,OVC,0.00,0.0,WeatherDisplay:10.37,2013-10-01 17:50:00,
2013-10-01 20:00:00,41.9,30.6,30.03,North,352,0.0,0.0,64,0.00,CLR,OVC,0.00,0.0,WeatherDisplay:10.37,2013-10-01 18:00:00,
2013-10-01 20:10:00,41.2,29.9,30.03,North,8,0.0,0.0,64,0.00,SCT,OVC,0.00,0.0,WeatherDisplay:10.37,2013-10-01 18:10:00,
2013-10-01 20:20:00,39.9,29.1,30.03,West,262,0.0,0.0,65,0.00,SCT,OVC,0.00,0.0,WeatherDisplay:10.37,2013-10-01 18:20:00,
2013-10-01 20:30:00,39.2,28.8,30.03,ESE,120,0.0,0.0,66,0.00,SCT,OVC,0.00,0.0,WeatherDisplay:10.37,2013-10-01 18:30:00,
2013-10-01 20:50:00,36.3,27.1,30.03,SSW,193,0.0,0.0,69,0.00,SCT,OVC,0.00,0.0,WeatherDisplay:10.37,2013-10-01 18:50:00,
2013-10-01 21:00:00,35.6,26.8,30.03,South,185,0.0,0.0,70,0.00,SCT,OVC,0.00,0.0,WeatherDisplay:10.37,2013-10-01 19:00:00,
2013-10-01 21:10:00,34.5,25.7,30.03,SSW,200,0.0,0.0,70,0.00,CLR,OVC,0.00,0.0,WeatherDisplay:10.37,2013-10-01 19:10:00,
2013-10-01 21:20:00,33.3,25.2,30.06,SSW,212,0.0,0.0,72,0.00,CLR,OVC,0.00,0.0,WeatherDisplay:10.37,2013-10-01 19:20:00,
2013-10-01 21:30:00,33.1,25.0,30.06,SSW,195,0.0,0.0,72,0.00,CLR,OVC,0.00,0.0,WeatherDisplay:10.37,2013-10-01 19:30:00,
2013-10-01 21:40:00,32.5,24.8,30.06,WSW,256,0.0,0.0,73,0.00,CLR,OVC,0.00,0.0,WeatherDisplay:10.37,2013-10-01 19:40:00,
2013-10-01 21:50:00,32.2,24.8,30.06,WNW,287,0.0,0.0,74,0.00,CLR,OVC,0.00,0.0,WeatherDisplay:10.37,2013-10-01 19:50:00,
2013-10-01 22:00:00,31.5,24.1,30.06,SW,225,0.0,0.0,74,0.00,CLR,OVC,0.00,0.0,WeatherDisplay:10.37,2013-10-01 20:00:00,
2013-10-01 22:10:00,30.9,23.9,30.06,SW,217,0.0,0.0,75,0.00,BKN,OVC,0.00,0.0,WeatherDisplay:10.37,2013-10-01 20:10:00,
2013-10-01 22:20:00,30.7,23.8,30.06,South,175,0.0,0.0,75,0.00,BKN,OVC,0.00,0.0,WeatherDisplay:10.37,2013-10-01 20:20:00,
2013-10-01 22:30:00,30.6,23.6,30.06,SW,215,0.0,0.0,75,0.00,BKN,OVC,0.00,0.0,WeatherDisplay:10.37,2013-10-01 20:30:00,
2013-10-01 22:40:00,30.6,23.9,30.06,SSW,200,0.0,0.0,76,0.00,BKN,OVC,0.00,0.0,WeatherDisplay:10.37,2013-10-01 20:40:00,
2013-10-01 22:50:00,30.0,23.4,30.09,SSW,212,0.0,0.0,76,0.00,BKN,OVC,0.00,0.0,WeatherDisplay:10.37,2013-10-01 20:50:00,
2013-10-01 23:00:00,29.8,23.2,30.09,SSW,205,0.0,0.0,76,0.00,BKN,OVC,0.00,0.0,WeatherDisplay:10.37,2013-10-01 21:00:00,
2013-10-01 23:10:00,29.8,23.2,30.09,SW,220,0.0,0.0,76,0.00,FEW,OVC,0.00,0.0,WeatherDisplay:10.37,2013-10-01 21:10:00,
2013-10-01 23:20:00,29.5,23.2,30.09,SSW,195,0.0,0.0,77,0.00,FEW,OVC,0.00,0.0,WeatherDisplay:10.37,2013-10-01 21:20:00,
2013-10-01 23:30:00,29.3,23.0,30.09,WNW,294,0.0,0.0,77,0.00,FEW,OVC,0.00,0.0,WeatherDisplay:10.37,2013-10-01 21:30:00,
2013-10-01 23:40:00,29.5,23.2,30.09,SW,215,0.0,0.0,77,0.00,FEW,OVC,0.00,0.0,WeatherDisplay:10.37,2013-10-01 21:40:00,
2013-10-01 23:50:00,29.1,22.8,30.09,South,190,0.0,0.0,77,0.00,FEW,OVC,0.00,0.0,WeatherDisplay:10.37,2013-10-01 21:50:00,